Date,TemperatureHighF,TemperatureAvgF,TemperatureLowF,DewpointHighF,DewpointAvgF,DewpointLowF,HumidityHigh,HumidityAvg,HumidityLow,PressureMaxIn,PressureMinIn,WindSpeedMaxMPH,WindSpeedAvgMPH,GustSpeedMaxMPH,PrecipitationSumIn
2013-10-1,87.0,69.4,56.0,69.0,61.8,53.6,97,79,52,29.93,29.81,9,0,9,0.00
2013-10-2,87.2,71.0,61.0,73.1,65.8,59.4,98,85,55,29.96,29.81,10,0,10,0.00
2013-10-3,85.3,73.9,63.8,73.0,67.8,61.3,95,82,64,29.85,29.67,16,1,16,0.02
2013-10-4,89.8,76.9,60.5,72.2,68.2,56.9,94,76,49,29.87,29.64,11,2,19,0.36
2013-10-5,61.6,54.8,47.7,57.0,40.5,37.0,88,59,44,30.02,29.87,11,0,11,0.00
2013-10-6,62.9,54.9,45.8,47.1,42.8,36.0,85,64,50,30.01,29.85,3,0,10,0.00
2013-10-7,77.2,55.8,40.5,50.0,44.4,38.1,92,70,33,30.14,30.00,7,0,7,0.00
2013-10-8,78.5,60.3,44.9,52.5,47.6,42.7,94,67,34,30.09,29.98,17,1,17,0.00
2013-10-9,79.6,63.5,50.9,55.1,50.5,47.3,88,65,40,30.07,29.97,13,0,13,0.00
2013-10-10,82.4,63.9,48.9,59.6,53.5,46.6,95,72,43,30.05,29.83,12,0,12,0.01
2013-10-11,76.5,67.7,59.3,66.2,60.8,54.6,89,79,68,29.85,29.74,19,1,19,0.00
2013-10-12,70.6,59.6,47.5,56.0,44.7,38.5,86,60,33,30.24,29.85,8,0,8,0.00
2013-10-13,70.9,55.4,40.6,45.4,40.7,36.6,95,63,31,30.38,30.24,16,1,16,0.00
2013-10-14,68.8,58.9,51.8,61.5,49.6,39.4,96,72,53,30.26,29.83,20,1,20,0.29
2013-10-15,62.6,54.4,46.7,60.8,46.1,38.3,96,75,50,30.08,29.85,7,0,7,0.12
2013-10-16,60.2,50.6,40.1,45.2,40.8,36.5,92,70,51,30.11,29.97,7,0,7,0.00
2013-10-17,69.7,52.8,39.2,47.5,41.7,35.8,94,69,33,30.02,29.89,11,0,11,0.00
2013-10-18,48.3,40.5,36.7,41.2,37.1,35.1,94,88,75,30.14,30.02,6,0,6,0.22
2013-10-19,64.7,45.8,32.3,45.2,37.8,30.9,97,77,38,30.09,29.87,12,0,12,0.01
2013-10-20,72.5,56.0,42.8,48.0,43.5,39.2,88,66,36,29.94,29.77,14,0,14,0.00
2013-10-21,57.2,48.4,39.9,46.9,37.1,31.0,88,66,41,30.12,29.93,4,0,6,0.00
2013-10-22,62.6,50.4,40.8,46.8,40.3,35.1,86,69,48,30.11,29.91,10,0,10,0.00
2013-10-23,53.9,43.2,33.4,40.5,35.8,30.8,98,77,51,30.16,30.02,7,0,7,0.00
2013-10-24,50.9,43.2,32.3,37.4,32.1,26.3,85,67,40,30.41,30.15,9,0,9,0.00
2013-10-25,60.2,42.1,26.9,35.0,29.1,24.6,94,65,30,30.44,30.13,9,0,13,0.00
2013-10-26,60.8,49.4,39.1,44.4,37.1,31.7,92,65,37,30.16,30.06,8,0,8,0.00
2013-10-27,67.4,45.9,28.1,39.5,32.5,25.5,94,64,29,30.16,29.92,10,0,10,0.00
2013-10-28,63.8,49.2,36.4,52.8,43.4,32.5,92,81,60,30.12,29.96,10,0,10,0.00
2013-10-29,65.4,57.6,51.0,65.1,56.9,48.7,99,97,92,30.08,29.90,16,1,16,1.11
2013-10-30,69.7,65.2,56.6,68.0,64.3,55.6,100,97,89,29.94,29.70,18,1,18,0.48
2013-10-31,57.8,50.9,43.0,55.6,48.4,40.9,98,91,71,29.72,29.55,7,0,7,0.54